Airfield :
LOGIN :

Register | Disclaimer

   EN    FR    IT 

 










Legend :    VFR   Marginal VFR   IFR   Intensive IFR   Very Intensive IFR
Visi :
Ceiling :
>= 8 km
>= 3000ft
5 to 8 km
1000 to 3000 ft
1500m to 5 km
500 to 1000 ft
800 to 1500m
200 to 500 ft
< 800m
< 200 ft
Symbols :   Thunderstorms  Fog  Heavy snow  Heavy precipitations  Wind > 20 kt
SIGMETs :     Misc.  Thunderstorms  Icing  Turbulence  Mountain Waves  Volcanic Ashes







- Airport Elevation : 273 ft


EGXT - RAF Wittering Stamford

CURRENT METAR :
  • 240750Z 06005KT 4000 HZ FEW100 BKN120 10/09 Q0992 GRN

EXPIRED METARs :
  • 240717Z 05005KT 3800 BR FEW100 OVC130 09/08 Q0992 GRN
  • 240650Z 02005KT 3300 BR OVC100 08/08 Q0992 YLO1
  • 240550Z 02005KT 2500 BR OVC100 08/07 Q0992 YLO1

TAF TAF EGXT
Valid from the 24 at 06:00 until the 24 at 15:00 UTC


240549Z 2406/2415 09010KT 3000 BR FEW025
BECMG 2406/2409 9999 NSW
BECMG 2412/2414 15015G28KT
PROB40
TEMPO 2412/2415 3000 +TSRA SHGS SCT014 BKN024CB
No reported NOTAMs for that airfield.



MET'MAP, your aeronautical weather chart ! - Copyright ORBIFLY December 2007 - Disclaimer

ORBIFLY MET'MAP TEAM :

Programming & Development : Alexandra Zaïnal
Concept & Development : Baudouin d'Aumeries
Co-Development & Prog : Marc-Olivier Méhu
Technical & hardware support : Manuel Goepfert

Contact : metmap@orbifly.com




SOURCES & CREDITS :

   NOAA